Flight Track Log - Related Links

Times and Time Zones

All times are in EDT time to prevent confusion due to time zone crossing. See the CES2827 flight status page for this flight to view local times or setup timezone preferences in your user account.

Time Position Orientation Groundspeed Altitude Reporting Facility
EDT Latitude Longitude Course Direction KTS MPH feet Rate Location/Type
Tue 08:24:00 AM 23.6353 109.8901 185° South  Level Estimated
Tue 08:25:00 AM 23.5520 109.8824 185° South  Level Estimated
Tue 08:26:00 AM 23.4687 109.8746 185° South  Level Estimated
Tue 08:27:00 AM 23.3854 109.8669 185° South  Level Estimated
Tue 08:28:00 AM 23.3021 109.8592 185° South  Level Estimated
Tue 08:29:00 AM 23.2188 109.8515 185° South  Level Estimated
Tue 08:30:00 AM 23.1355 109.8438 185° South  Level Estimated
Tue 08:31:00 AM 23.0521 109.8361 185° South  Level Estimated
Tue 08:32:00 AM 22.9688 109.8284 185° South  Level Estimated
Tue 08:33:00 AM 22.8855 109.8208 185° South  Level Estimated
Tue 08:34:00 AM 22.8022 109.8131 185° South  Level Estimated
Tue 08:35:00 AM 22.7189 109.8055 185° South  Level Estimated
Tue 08:36:00 AM 22.6356 109.7978 185° South  Level Estimated
Tue 08:37:00 AM 22.5523 109.7902 185° South  Level Estimated
Tue 08:38:00 AM 22.4690 109.7826 185° South  Level Estimated
Tue 08:39:00 AM 22.3857 109.7750 185° South  Level Estimated
Tue 08:40:00 AM 22.3023 109.7674 185° South  Level Estimated
Tue 08:41:00 AM 22.2190 109.7598 185° South  Level Estimated
Tue 08:42:00 AM 22.1357 109.7522 185° South  Level Estimated
Tue 08:43:00 AM 22.0524 109.7446 185° South  Level Estimated
Tue 08:44:00 AM 21.9691 109.7370 185° South  Level Estimated
Tue 08:45:00 AM 21.8858 109.7295 185° South  Level Estimated
Tue 08:46:00 AM 21.8024 109.7219 185° South  Level Estimated
Tue 08:47:00 AM 21.7191 109.7144 185° South  Level Estimated
Tue 08:48:00 AM 21.6358 109.7069 185° South  Level Estimated
Tue 08:49:00 AM 21.5525 109.6993 185° South  Level Estimated
Tue 08:50:00 AM 21.4692 109.6918 185° South  Level Estimated
Tue 08:51:00 AM 21.3858 109.6843 185° South  Level Estimated
Tue 08:52:00 AM 21.3025 109.6768 185° South  Level Estimated
Tue 08:53:00 AM 21.2192 109.6693 185° South  Level Estimated
Tue 08:54:00 AM 21.1359 109.6618 185° South  Level Estimated
Tue 08:55:00 AM 21.0526 109.6544 185° South  Level Estimated
Tue 08:56:00 AM 20.9692 109.6469 185° South  Level Estimated
Tue 08:57:00 AM 20.8859 109.6395 185° South  Level Estimated
Tue 08:58:00 AM 20.8026 109.6320 185° South  Level Estimated
Tue 08:59:00 AM 20.7193 109.6246 185° South  Level Estimated
Tue 09:00:00 AM 20.6360 109.6171 185° South  Level Estimated
Tue 09:01:00 AM 20.5526 109.6097 185° South  Level Estimated
Tue 09:02:00 AM 20.4693 109.6023 185° South  Level Estimated
Tue 09:03:00 AM 20.3860 109.5949 185° South  Level Estimated
Tue 09:04:00 AM 20.3027 109.5875 185° South  Level Estimated
Tue 09:05:00 AM 20.2194 109.5801 185° South  Level Estimated
Tue 09:06:00 AM 20.1360 109.5727 185° South  Level Estimated
Tue 09:07:00 AM 20.0527 109.5654 185° South  Level Estimated
Tue 09:08:00 AM 19.9694 109.5580 185° South  Level Estimated
Tue 09:09:00 AM 19.8861 109.5506 185° South  Level Estimated
Tue 09:10:00 AM 19.8028 109.5433 185° South  Level Estimated
Tue 09:11:00 AM 19.6964 109.5339 185° South  Level Estimated
Tue 09:12:00 AM 19.5900 109.5246 185° South  Level Estimated
Tue 09:13:00 AM 19.4836 109.5152 185° South  Level Estimated
Tue 09:14:00 AM 19.3772 109.5059 185° South  Level Estimated
Tue 09:15:00 AM 19.2708 109.4966 185° South  Level Estimated
Tue 09:16:00 AM 19.1644 109.4872 185° South  Level Estimated
Tue 09:17:00 AM 19.0580 109.4779 185° South  Level Estimated
Tue 09:18:00 AM 18.9516 109.4687 185° South  Level Estimated
Tue 09:19:00 AM 18.8452 109.4594 185° South  Level Estimated
Tue 09:20:00 AM 18.7388 109.4501 185° South  Level Estimated
Tue 09:21:00 AM 18.6324 109.4408 185° South  Level Estimated
Tue 09:22:00 AM 18.5260 109.4316 185° South  Level Estimated
Tue 09:23:00 AM 18.4196 109.4224 185° South  Level Estimated
Tue 09:24:00 AM 18.3132 109.4132 185° South  Level Estimated
Tue 09:25:00 AM 18.3029 109.4123 185° South  Level Estimated
Tue 09:26:00 AM 18.3029 109.4123 148° Southeast  Level Estimated

Login

Don't have an account? Register now (free) for customized features, flight alerts, and more!